sensor_id;sensor_type;location;lat;lon;timestamp;P1;durP1;ratioP1;P2;durP2;ratioP2
65053;SDS011;51639;47.828;35.038;2022-11-14T00:02:30;14.93;;;8.13;;
65053;SDS011;51639;47.828;35.038;2022-11-14T00:17:32;16.83;;;7.30;;
65053;SDS011;51639;47.828;35.038;2022-11-14T00:32:34;19.03;;;6.83;;
65053;SDS011;51639;47.828;35.038;2022-11-14T00:47:36;17.70;;;7.67;;
65053;SDS011;51639;47.828;35.038;2022-11-14T01:02:38;15.10;;;6.83;;
65053;SDS011;51639;47.828;35.038;2022-11-14T01:17:40;13.43;;;6.47;;
65053;SDS011;51639;47.828;35.038;2022-11-14T01:32:43;16.93;;;7.93;;
65053;SDS011;51639;47.828;35.038;2022-11-14T01:47:45;12.97;;;6.13;;
65053;SDS011;51639;47.828;35.038;2022-11-14T02:02:46;11.63;;;5.57;;
65053;SDS011;51639;47.828;35.038;2022-11-14T02:17:49;12.70;;;5.93;;
65053;SDS011;51639;47.828;35.038;2022-11-14T02:32:51;14.33;;;5.63;;
65053;SDS011;51639;47.828;35.038;2022-11-14T02:48:13;11.13;;;5.43;;
65053;SDS011;51639;47.828;35.038;2022-11-14T03:03:15;11.40;;;6.23;;
65053;SDS011;51639;47.828;35.038;2022-11-14T03:18:17;10.90;;;5.80;;
65053;SDS011;51639;47.828;35.038;2022-11-14T03:33:18;13.33;;;5.90;;
65053;SDS011;51639;47.828;35.038;2022-11-14T03:48:20;9.37;;;4.77;;
65053;SDS011;51639;47.828;35.038;2022-11-14T04:03:23;20.17;;;6.37;;
65053;SDS011;51639;47.828;35.038;2022-11-14T04:18:25;13.93;;;6.23;;
65053;SDS011;51639;47.828;35.038;2022-11-14T04:33:28;13.10;;;5.90;;
65053;SDS011;51639;47.828;35.038;2022-11-14T04:48:31;11.57;;;5.30;;
65053;SDS011;51639;47.828;35.038;2022-11-14T05:03:33;8.63;;;4.97;;
65053;SDS011;51639;47.828;35.038;2022-11-14T05:18:35;11.27;;;5.17;;
65053;SDS011;51639;47.828;35.038;2022-11-14T05:33:40;8.33;;;4.67;;
65053;SDS011;51639;47.828;35.038;2022-11-14T05:48:42;9.63;;;5.00;;
65053;SDS011;51639;47.828;35.038;2022-11-14T06:03:45;6.40;;;4.23;;
65053;SDS011;51639;47.828;35.038;2022-11-14T06:18:48;9.53;;;4.73;;
65053;SDS011;51639;47.828;35.038;2022-11-14T06:48:55;7.03;;;3.83;;
65053;SDS011;51639;47.828;35.038;2022-11-14T07:03:57;5.67;;;3.53;;
65053;SDS011;51639;47.828;35.038;2022-11-14T07:19:02;7.07;;;3.20;;
65053;SDS011;51639;47.828;35.038;2022-11-14T07:34:06;4.97;;;3.00;;
65053;SDS011;51639;47.828;35.038;2022-11-14T07:49:09;5.57;;;3.03;;
65053;SDS011;51639;47.828;35.038;2022-11-14T08:04:11;29.60;;;14.50;;
65053;SDS011;51639;47.828;35.038;2022-11-14T08:19:13;4.20;;;1.70;;
65053;SDS011;51639;47.828;35.038;2022-11-14T08:34:17;2.77;;;1.63;;
65053;SDS011;51639;47.828;35.038;2022-11-14T08:49:19;3.00;;;1.90;;
65053;SDS011;51639;47.828;35.038;2022-11-14T09:04:21;3.65;;;1.55;;
65053;SDS011;51639;47.828;35.038;2022-11-14T09:19:23;3.10;;;1.50;;
65053;SDS011;51639;47.828;35.038;2022-11-14T09:34:25;5.47;;;1.30;;
65053;SDS011;51639;47.828;35.038;2022-11-14T09:49:40;3.72;;;1.33;;
65053;SDS011;51639;47.828;35.038;2022-11-14T10:04:57;5.40;;;1.73;;
65053;SDS011;51639;47.828;35.038;2022-11-14T10:35:52;4.55;;;1.17;;
65053;SDS011;51639;47.828;35.038;2022-11-14T10:51:04;4.13;;;1.40;;
65053;SDS011;51639;47.828;35.038;2022-11-14T11:06:26;4.90;;;2.03;;
65053;SDS011;51639;47.828;35.038;2022-11-14T11:21:29;4.47;;;1.17;;
65053;SDS011;51639;47.828;35.038;2022-11-14T11:37:04;2.97;;;1.25;;
65053;SDS011;51639;47.828;35.038;2022-11-14T12:07:37;1.85;;;1.30;;
65053;SDS011;51639;47.828;35.038;2022-11-14T12:38:14;6.53;;;2.07;;
65053;SDS011;51639;47.828;35.038;2022-11-14T12:53:42;10.23;;;4.33;;
65053;SDS011;51639;47.828;35.038;2022-11-14T13:23:52;13.93;;;5.97;;
65053;SDS011;51639;47.828;35.038;2022-11-14T13:39:19;10.03;;;3.93;;
65053;SDS011;51639;47.828;35.038;2022-11-14T13:54:33;10.30;;;4.90;;
65053;SDS011;51639;47.828;35.038;2022-11-14T14:40:22;8.07;;;4.03;;
65053;SDS011;51639;47.828;35.038;2022-11-14T14:55:27;6.80;;;3.37;;
65053;SDS011;51639;47.828;35.038;2022-11-14T15:10:33;6.27;;;3.30;;
65053;SDS011;51639;47.828;35.038;2022-11-14T15:25:36;15.30;;;4.87;;
65053;SDS011;51639;47.828;35.038;2022-11-14T15:40:39;12.40;;;5.03;;
65053;SDS011;51639;47.828;35.038;2022-11-14T15:55:41;12.03;;;5.47;;
65053;SDS011;51639;47.828;35.038;2022-11-14T16:10:43;16.97;;;5.40;;
65053;SDS011;51639;47.828;35.038;2022-11-14T16:25:45;11.43;;;4.27;;
65053;SDS011;51639;47.828;35.038;2022-11-14T16:40:49;10.03;;;5.07;;
65053;SDS011;51639;47.828;35.038;2022-11-14T16:55:53;10.63;;;4.73;;
65053;SDS011;51639;47.828;35.038;2022-11-14T17:10:56;8.10;;;4.33;;
65053;SDS011;51639;47.828;35.038;2022-11-14T17:26:04;24.83;;;11.17;;
65053;SDS011;51639;47.828;35.038;2022-11-14T17:41:08;10.57;;;4.93;;
65053;SDS011;51639;47.828;35.038;2022-11-14T17:56:12;10.33;;;5.33;;
65053;SDS011;51639;47.828;35.038;2022-11-14T18:11:18;13.20;;;5.80;;
65053;SDS011;51639;47.828;35.038;2022-11-14T18:41:27;13.23;;;5.73;;
65053;SDS011;51639;47.828;35.038;2022-11-14T18:56:29;12.47;;;6.13;;
65053;SDS011;51639;47.828;35.038;2022-11-14T19:11:31;11.53;;;6.57;;
65053;SDS011;51639;47.828;35.038;2022-11-14T19:26:52;20.40;;;10.90;;
65053;SDS011;51639;47.828;35.038;2022-11-14T19:41:55;21.03;;;11.17;;
65053;SDS011;51639;47.828;35.038;2022-11-14T19:56:57;17.70;;;9.00;;
65053;SDS011;51639;47.828;35.038;2022-11-14T20:12:02;14.87;;;7.40;;
65053;SDS011;51639;47.828;35.038;2022-11-14T20:27:10;19.00;;;9.10;;
65053;SDS011;51639;47.828;35.038;2022-11-14T20:42:12;16.77;;;8.57;;
65053;SDS011;51639;47.828;35.038;2022-11-14T20:57:14;20.40;;;10.17;;
65053;SDS011;51639;47.828;35.038;2022-11-14T21:12:17;23.37;;;10.27;;
65053;SDS011;51639;47.828;35.038;2022-11-14T21:27:19;21.03;;;11.10;;
65053;SDS011;51639;47.828;35.038;2022-11-14T21:42:20;20.03;;;9.57;;
65053;SDS011;51639;47.828;35.038;2022-11-14T21:57:22;24.37;;;9.90;;
65053;SDS011;51639;47.828;35.038;2022-11-14T22:12:24;20.77;;;9.20;;
65053;SDS011;51639;47.828;35.038;2022-11-14T22:27:26;24.50;;;9.87;;
65053;SDS011;51639;47.828;35.038;2022-11-14T22:42:28;24.97;;;11.10;;
65053;SDS011;51639;47.828;35.038;2022-11-14T22:57:30;22.97;;;10.73;;
65053;SDS011;51639;47.828;35.038;2022-11-14T23:12:32;25.53;;;10.43;;
65053;SDS011;51639;47.828;35.038;2022-11-14T23:27:34;19.10;;;9.87;;
65053;SDS011;51639;47.828;35.038;2022-11-14T23:42:36;22.00;;;10.20;;
65053;SDS011;51639;47.828;35.038;2022-11-14T23:57:38;22.40;;;10.07;;
